METAR Data
IDs: Format: Raw Decoded Include TAF

Data at: 0800 UTC 01 Aug 2021

ESGG 010750Z 23019KT 9999 DZ FEW024CB BKN029 15/09 Q0999